Milwaukee

Airport
ICAO code: 
KMKE
Summary
ICAO Region: 
NAM
Territory: 
Location: 
Milwaukee, Wisconsin,
Coordinates: 
Aerial View: 
42° 56' 51.5" N, 87° 54' 10.62" W
Airport WX: 
Lake Effect Snow
Metar
Observation
KMKE 060736Z 26009G19KT 10SM SCT010 SCT037 BKN200 02/M01 A2960 RMK AO2 PK WND 25026/0657 T00221011 $
Station
Milwaukee, General Mitchell International Airport
Date/Time
2021-12-06 07:36:00
Wind direction
260°
Wind speed
09 kts
Lowest cloud amount
scattered clouds
Temperature
2.2°C
Dew point
-1.1°C
Humidity
78%
Weather condition
n/a

Description

General Mitchell International Airport is a county-owned public airport located five miles (8 km) south of the central business district of Milwaukee, a city in Milwaukee County, Wisconsin, United States.

Climatology

Humid continental climate (Köppen climate classification Dfa) - characterized by four seasons: cold, windy, snowy winters, mild springs, hot, humid summers, and crisp and relatively short autumns. Precipitation reaches its lowest in January and February and peaks in summer and latter half of spring.

Runways

Designator Length Width Surface Rops
01R/19L 1275 46 ASP Yes/Yes
07L/25R 1463 30 ASP Yes/Yes
13/31 1789 46 ASP Yes/Yes
07R/25L 2442 46 PEM Yes/Yes
01L/19R 2954 61 PEM Yes/Yes
Airport map: 
Aerial View: 

SKYbrary Partners:

Safety knowledge contributed by: